This is the latest recevied weather packets stored in our database for station/object YO8RXT-3. If no packets are shown the sender has not sent any weather packets the latest 10 day(s).
| Time | Temp. | Humidity | Pressure | Rain* | Wind** | Luminosity | Snow |
|---|---|---|---|---|---|---|---|
| 1777878303 | 16.11° C | 48% | 1016 hPa | - | - | - | - |
| 1777876503 | 13.89° C | 55% | 1016 hPa | - | - | - | - |
| 1777874704 | 12.78° C | 55% | 1016 hPa | - | - | - | - |
| 1777872903 | 12.22° C | 54% | 1016 hPa | - | - | - | - |
| 1777871103 | 10° C | 58% | 1016 hPa | - | - | - | - |
| 1777869303 | 7.78° C | 71% | 1016 hPa | - | - | - | - |
| 1777867503 | 7.78° C | 71% | 1016 hPa | - | - | - | - |
| 1777865703 | 8.89° C | 58% | 1016 hPa | - | - | - | - |
| 1777863902 | 8.89° C | 58% | 1016 hPa | - | - | - | - |
| 1777862103 | 8.89° C | 58% | 1016 hPa | - | - | - | - |
| 1777860303 | 8.89° C | 54% | 1016 hPa | - | - | - | - |
| 1777858503 | 8.89° C | 58% | 1016 hPa | - | - | - | - |
| 1777856703 | 8.89° C | 58% | 1016 hPa | - | - | - | - |
| 1777854903 | 8.89° C | 58% | 1017 hPa | - | - | - | - |
| 1777853102 | 7.78° C | 66% | 1017 hPa | - | - | - | - |
| 1777851303 | 10° C | 50% | 1017 hPa | - | - | - | - |
| 1777849503 | 10° C | 50% | 1017 hPa | - | - | - | - |
| 1777847702 | 11.11° C | 44% | 1017 hPa | - | - | - | - |
| 1777845905 | 11.11° C | 44% | 1017 hPa | - | - | - | - |
| 1777844103 | 11.11° C | 44% | 1017 hPa | - | - | - | - |
| 1777842302 | 12.22° C | 41% | 1017 hPa | - | - | - | - |
| 1777840502 | 12.22° C | 41% | 1018 hPa | - | - | - | - |
| 1777838702 | 12.22° C | 41% | 1018 hPa | - | - | - | - |
| 1777836902 | 12.22° C | 44% | 1018 hPa | - | - | - | - |
| 1777835103 | 12.22° C | 41% | 1018 hPa | - | - | - | - |
* Rain since midnight (hover to see other rain measurements)
** Current wind speed in m/s (hover to see current wind gust speed)